Time;durP1;ratioP1;P1;durP2;ratioP2;P2;SDS_P1;SDS_P2;PMS_P1;PMS_P2;Temp;Humidity;BMP_temperature;BMP_pressure;BME280_temperature;BME280_humidity;BME280_pressure;Samples;Min_cycle;Max_cycle;Signal;HPM_P1;HPM_P2
2021/04/04 00:00:27;;;;;;;22.35;5.18;;;5.90;71.20;;;;;;5076114;28;20064;-76
2021/04/04 00:02:53;;;;;;;21.48;5.32;;;6.00;71.30;;;;;;5068369;28;20059;-76
2021/04/04 00:05:19;;;;;;;24.20;5.20;;;6.00;71.20;;;;;;5056222;28;20068;-77
2021/04/04 00:07:44;;;;;;;20.35;4.88;;;6.00;71.10;;;;;;5058786;28;20027;-77
2021/04/04 00:10:12;;;;;;;21.90;5.05;;;5.90;71.20;;;;;;5076020;28;20025;-77
2021/04/04 00:12:38;;;;;;;19.48;4.88;;;5.90;71.40;;;;;;5068177;28;20099;-77
2021/04/04 00:15:12;;;;;;;24.58;5.68;;;5.90;71.50;;;;;;5074348;28;20032;-77
2021/04/04 00:17:38;;;;;;;23.40;5.65;;;5.90;71.60;;;;;;5055946;28;20601;-77
2021/04/04 00:20:15;;;;;;;20.77;5.53;;;5.80;71.60;;;;;;5037434;28;20116;-77
2021/04/04 00:22:42;;;;;;;18.75;5.45;;;5.80;71.70;;;;;;5066286;28;20062;-76
2021/04/04 00:25:11;;;;;;;22.15;4.93;;;5.80;71.60;;;;;;5058992;28;20163;-77
2021/04/04 00:27:36;;;;;;;21.58;5.30;;;5.80;71.70;;;;;;5059654;28;20078;-76
2021/04/04 00:30:17;;;;;;;23.08;5.82;;;5.70;71.90;;;;;;5054504;28;20119;-77
2021/04/04 00:32:43;;;;;;;21.58;4.97;;;5.60;72.20;;;;;;5064294;28;20032;-76
2021/04/04 00:35:15;;;;;;;17.95;4.93;;;5.70;72.10;;;;;;5064707;28;20394;-76
2021/04/04 00:37:41;;;;;;;20.25;5.05;;;5.70;72.10;;;;;;5066965;28;20509;-77
2021/04/04 00:40:15;;;;;;;23.10;5.50;;;5.60;72.10;;;;;;5073995;28;20037;-76
2021/04/04 00:42:41;;;;;;;20.20;4.47;;;5.60;72.30;;;;;;5063362;28;20028;-76
2021/04/04 00:45:10;;;;;;;22.25;4.75;;;5.60;72.30;;;;;;5068652;28;20033;-76
2021/04/04 00:47:36;;;;;;;20.05;5.38;;;5.50;72.40;;;;;;5069234;28;20066;-76
2021/04/04 00:50:03;;;;;;;21.42;5.18;;;5.60;72.40;;;;;;5095433;28;20036;-76
2021/04/04 00:52:29;;;;;;;22.17;5.10;;;5.60;72.30;;;;;;5077506;28;20024;-77
2021/04/04 00:54:55;;;;;;;23.23;5.57;;;5.50;72.20;;;;;;5077271;28;20550;-77
2021/04/04 00:57:21;;;;;;;18.88;4.65;;;5.50;72.30;;;;;;5077225;28;20031;-77
2021/04/04 00:59:47;;;;;;;28.75;6.25;;;5.50;72.40;;;;;;5095025;28;20028;-76
2021/04/04 01:02:15;;;;;;;18.98;5.05;;;5.50;72.60;;;;;;5076793;28;20472;-77
2021/04/04 01:04:42;;;;;;;18.40;4.95;;;5.40;72.60;;;;;;5077415;28;20028;-77
2021/04/04 01:07:08;;;;;;;14.98;4.20;;;5.40;72.60;;;;;;5095392;28;20480;-76
2021/04/04 01:09:33;;;;;;;19.92;4.32;;;5.40;72.60;;;;;;5094655;28;20043;-77
2021/04/04 01:12:12;;;;;;;22.50;5.15;;;5.50;72.70;;;;;;5076910;28;20028;-77
2021/04/04 01:14:49;;;;;;;15.30;4.50;;;5.50;72.90;;;;;;5074539;28;20068;-77
2021/04/04 01:17:19;;;;;;;24.83;5.15;;;5.50;72.80;;;;;;5104608;28;20027;-77
2021/04/04 01:20:10;;;;;;;19.90;5.07;;;5.50;72.90;;;;;;5095090;28;20028;-77
2021/04/04 01:22:57;;;;;;;22.50;4.90;;;5.60;73.00;;;;;;5089673;28;20028;-77
2021/04/04 01:25:59;;;;;;;19.40;4.82;;;5.60;73.00;;;;;;5094497;28;20024;-76
2021/04/04 01:28:28;;;;;;;19.00;4.88;;;5.70;72.90;;;;;;5095067;28;20024;-77
2021/04/04 01:30:54;;;;;;;19.33;4.68;;;5.80;72.80;;;;;;5094420;28;20476;-77
2021/04/04 01:33:23;;;;;;;24.35;6.00;;;5.80;72.90;;;;;;5076687;28;20040;-77
2021/04/04 01:35:53;;;;;;;19.65;5.03;;;5.80;72.90;;;;;;5094755;28;20067;-77
2021/04/04 01:38:25;;;;;;;20.27;4.18;;;5.90;72.80;;;;;;5094499;28;20016;-76
2021/04/04 01:41:04;;;;;;;25.00;5.43;;;5.90;72.70;;;;;;5094526;28;20012;-76
2021/04/04 01:43:31;;;;;;;18.77;5.13;;;6.00;73.10;;;;;;5094451;28;20035;-77
2021/04/04 01:45:58;;;;;;;27.90;5.88;;;6.00;73.20;;;;;;5094437;28;20028;-77
2021/04/04 01:48:25;;;;;;;26.27;6.28;;;5.90;73.30;;;;;;5094316;28;20040;-77
2021/04/04 01:50:52;;;;;;;24.35;5.72;;;5.90;73.40;;;;;;5094366;28;20034;-76
2021/04/04 01:53:18;;;;;;;21.58;5.50;;;5.90;73.30;;;;;;5094487;28;20392;-77
2021/04/04 01:55:45;;;;;;;24.73;6.65;;;5.90;73.30;;;;;;5093812;28;20032;-76
2021/04/04 01:58:12;;;;;;;23.98;5.45;;;6.00;73.40;;;;;;5059451;28;20024;-76
2021/04/04 02:00:39;;;;;;;21.90;4.60;;;6.00;73.30;;;;;;5094253;28;20046;-77
2021/04/04 02:03:07;;;;;;;21.10;5.13;;;6.00;73.30;;;;;;5094099;28;20377;-77
2021/04/04 02:05:33;;;;;;;20.40;4.85;;;6.10;73.30;;;;;;5093737;28;20556;-77
2021/04/04 02:08:00;;;;;;;22.73;5.07;;;6.10;73.20;;;;;;5092378;28;20103;-77
2021/04/04 02:10:29;;;;;;;17.17;4.80;;;6.10;73.40;;;;;;5093892;28;20027;-77
2021/04/04 02:12:58;;;;;;;22.05;5.38;;;6.10;73.60;;;;;;5093968;28;20074;-76
2021/04/04 02:15:27;;;;;;;17.55;4.55;;;6.10;73.40;;;;;;5093537;28;20469;-77
2021/04/04 02:17:54;;;;;;;24.38;5.72;;;6.20;73.40;;;;;;5093939;28;20038;-76
2021/04/04 02:20:22;;;;;;;24.55;5.63;;;6.20;73.30;;;;;;5093870;28;20024;-77
2021/04/04 02:22:50;;;;;;;18.67;5.07;;;6.20;73.50;;;;;;5093691;28;20024;-77
2021/04/04 02:25:16;;;;;;;17.52;5.32;;;6.20;73.50;;;;;;5093695;28;20040;-77
2021/04/04 02:27:44;;;;;;;24.02;5.07;;;6.30;73.60;;;;;;5093685;28;20125;-77
2021/04/04 02:30:13;;;;;;;21.27;5.43;;;6.30;73.50;;;;;;5094035;28;20504;-77
2021/04/04 02:32:43;;;;;;;16.50;4.47;;;6.30;73.30;;;;;;5093347;28;20505;-77
2021/04/04 02:35:11;;;;;;;24.63;4.75;;;6.30;73.30;;;;;;5093930;28;20437;-77
2021/04/04 02:37:40;;;;;;;26.77;5.47;;;6.40;73.20;;;;;;5075455;28;20405;-77
2021/04/04 02:40:09;;;;;;;24.90;5.15;;;6.40;73.20;;;;;;5075513;28;20031;-77
2021/04/04 02:42:37;;;;;;;22.77;5.43;;;6.30;73.30;;;;;;5093448;28;20562;-77
2021/04/04 02:45:05;;;;;;;28.45;5.60;;;6.30;73.30;;;;;;5093734;28;20054;-77
2021/04/04 02:47:35;;;;;;;26.90;5.53;;;6.30;73.30;;;;;;5093211;28;20063;-77
2021/04/04 02:50:02;;;;;;;21.85;5.18;;;6.30;73.40;;;;;;5094339;28;20020;-76
2021/04/04 02:52:31;;;;;;;24.30;5.07;;;6.30;73.50;;;;;;5093313;28;20062;-77
2021/04/04 02:54:59;;;;;;;15.73;4.45;;;6.30;73.90;;;;;;5093136;28;20077;-77
2021/04/04 02:57:28;;;;;;;24.30;5.25;;;6.30;73.70;;;;;;5093249;28;20028;-77
2021/04/04 02:59:58;;;;;;;21.45;5.20;;;6.30;73.50;;;;;;5093235;28;20541;-76
2021/04/04 03:02:25;;;;;;;18.67;5.13;;;6.30;73.50;;;;;;5075189;28;20058;-75
2021/04/04 03:04:52;;;;;;;22.67;5.40;;;6.30;73.50;;;;;;5092996;28;20437;-75
2021/04/04 03:07:21;;;;;;;25.92;5.85;;;6.30;73.40;;;;;;5079424;28;20051;-75
2021/04/04 03:09:50;;;;;;;16.08;4.90;;;6.30;73.30;;;;;;5079370;28;20126;-75
2021/04/04 03:12:17;;;;;;;18.38;5.43;;;6.30;73.20;;;;;;5097482;28;20024;-75
2021/04/04 03:14:45;;;;;;;22.73;4.78;;;6.40;73.20;;;;;;5097402;28;20024;-75
2021/04/04 03:17:12;;;;;;;25.08;4.80;;;6.40;73.10;;;;;;5097488;28;20036;-75
2021/04/04 03:19:40;;;;;;;17.05;5.28;;;6.40;72.90;;;;;;5079382;28;20097;-75
2021/04/04 03:22:07;;;;;;;20.67;4.53;;;6.40;72.70;;;;;;5097332;28;20032;-75
2021/04/04 03:24:34;;;;;;;12.02;3.67;;;6.40;72.50;;;;;;5097432;28;20062;-75
2021/04/04 03:27:01;;;;;;;12.32;4.15;;;6.50;72.50;;;;;;5097702;28;20028;-75
2021/04/04 03:29:28;;;;;;;16.75;4.57;;;6.50;72.20;;;;;;5079014;28;20032;-75
2021/04/04 03:31:54;;;;;;;21.85;4.78;;;6.50;71.90;;;;;;5097196;28;20024;-75
2021/04/04 03:34:20;;;;;;;13.50;3.97;;;6.50;71.60;;;;;;5097118;28;20028;-75
2021/04/04 03:36:48;;;;;;;16.52;4.20;;;6.50;71.40;;;;;;5097373;28;20028;-75
2021/04/04 03:39:14;;;;;;;18.35;4.35;;;6.50;71.50;;;;;;5096938;28;20031;-75
2021/04/04 03:41:41;;;;;;;18.80;3.78;;;6.50;71.40;;;;;;5096754;28;20032;-75
2021/04/04 03:44:09;;;;;;;16.90;3.85;;;6.50;71.30;;;;;;5096946;28;20028;-75
2021/04/04 03:46:36;;;;;;;17.90;3.83;;;6.60;71.40;;;;;;5096990;28;20020;-75
2021/04/04 03:49:02;;;;;;;15.63;3.72;;;6.60;71.30;;;;;;5078614;28;20044;-75
2021/04/04 03:51:30;;;;;;;26.02;4.57;;;6.70;71.40;;;;;;5078605;28;20024;-75
2021/04/04 03:53:58;;;;;;;17.50;3.83;;;6.70;71.30;;;;;;5096650;28;20029;-75
2021/04/04 03:56:32;;;;;;;13.98;3.65;;;6.70;71.20;;;;;;5096599;28;20487;-75
2021/04/04 03:59:06;;;;;;;14.27;3.85;;;6.70;71.10;;;;;;5079435;28;20032;-75
2021/04/04 04:01:38;;;;;;;10.32;3.13;;;6.80;70.90;;;;;;5096562;28;20016;-75
2021/04/04 04:04:07;;;;;;;16.42;3.38;;;6.80;70.90;;;;;;5096480;28;20020;-75
2021/04/04 04:06:34;;;;;;;20.92;3.80;;;6.80;70.90;;;;;;5096284;28;20028;-75
2021/04/04 04:09:03;;;;;;;17.10;3.90;;;6.80;70.90;;;;;;5077939;28;20032;-75
2021/04/04 04:11:30;;;;;;;15.90;3.92;;;6.80;70.70;;;;;;5076461;28;20115;-75
2021/04/04 04:13:58;;;;;;;18.65;3.97;;;6.80;70.40;;;;;;5096377;28;20112;-75
2021/04/04 04:16:24;;;;;;;17.15;3.60;;;6.80;70.30;;;;;;5094881;28;20534;-75
2021/04/04 04:18:50;;;;;;;14.10;3.10;;;6.90;70.40;;;;;;5078167;28;20028;-75
2021/04/04 04:21:17;;;;;;;18.88;4.35;;;6.90;70.40;;;;;;5077995;28;20024;-75
2021/04/04 04:23:44;;;;;;;16.52;3.83;;;6.90;70.10;;;;;;5061232;28;20369;-75
2021/04/04 04:26:12;;;;;;;12.43;3.15;;;6.90;70.10;;;;;;5096077;28;20020;-75
2021/04/04 04:28:40;;;;;;;18.50;3.75;;;6.90;70.00;;;;;;5096190;28;20032;-75
2021/04/04 04:31:09;;;;;;;12.93;3.38;;;7.00;69.90;;;;;;5095918;28;20361;-75
2021/04/04 04:33:35;;;;;;;11.05;3.50;;;7.00;69.90;;;;;;5095858;28;20031;-75
2021/04/04 04:36:02;;;;;;;14.60;3.58;;;6.90;69.90;;;;;;5095724;28;20036;-75
2021/04/04 04:38:29;;;;;;;21.48;4.50;;;6.90;69.90;;;;;;5077754;28;20034;-75
2021/04/04 04:40:56;;;;;;;18.70;4.50;;;7.00;70.10;;;;;;5095412;28;20020;-75
2021/04/04 04:43:22;;;;;;;16.58;3.33;;;6.90;70.10;;;;;;5077681;28;20024;-75
2021/04/04 04:45:51;;;;;;;33.25;5.18;;;6.90;70.10;;;;;;5095789;28;20437;-75
2021/04/04 04:48:16;;;;;;;23.83;4.50;;;6.90;69.80;;;;;;5095433;28;20093;-75
2021/04/04 04:50:43;;;;;;;16.23;3.55;;;6.90;69.40;;;;;;5095310;28;20925;-75
2021/04/04 04:53:09;;;;;;;10.68;3.03;;;6.90;69.40;;;;;;5095341;28;20495;-75
2021/04/04 04:55:36;;;;;;;16.88;3.90;;;6.90;69.40;;;;;;5060452;28;20043;-75
2021/04/04 04:58:03;;;;;;;18.02;3.92;;;6.80;69.40;;;;;;5095233;28;20438;-75
2021/04/04 05:00:30;;;;;;;16.52;3.80;;;6.90;69.50;;;;;;5095135;28;20022;-75
2021/04/04 05:02:56;;;;;;;14.95;3.30;;;6.90;69.50;;;;;;5095163;28;20020;-75
2021/04/04 05:05:22;;;;;;;22.88;3.70;;;6.80;69.50;;;;;;5095072;28;20024;-75
2021/04/04 05:07:48;;;;;;;13.93;3.78;;;6.80;69.50;;;;;;5095125;28;20076;-75
2021/04/04 05:10:14;;;;;;;18.83;3.63;;;6.90;69.50;;;;;;5077035;28;20392;-75
2021/04/04 05:13:07;;;;;;;17.40;3.97;;;6.90;69.40;;;;;;5095329;28;20024;-75
2021/04/04 05:15:33;;;;;;;17.35;3.90;;;6.90;69.40;;;;;;5091763;28;20162;-75
2021/04/04 05:17:59;;;;;;;18.52;4.25;;;6.90;69.40;;;;;;5077099;28;20027;-75
2021/04/04 05:20:25;;;;;;;15.57;4.57;;;6.90;69.50;;;;;;5095193;28;20020;-75
2021/04/04 05:22:50;;;;;;;12.38;3.65;;;6.90;69.60;;;;;;5095050;28;20090;-75
2021/04/04 05:25:16;;;;;;;13.18;3.60;;;6.90;69.70;;;;;;5077030;28;20052;-75
2021/04/04 05:27:42;;;;;;;16.45;3.85;;;6.90;69.70;;;;;;5094701;28;20587;-75
2021/04/04 05:30:11;;;;;;;16.85;3.38;;;7.00;69.70;;;;;;5094559;28;20028;-75
2021/04/04 05:32:47;;;;;;;15.95;3.85;;;6.90;69.70;;;;;;5094851;28;20381;-75
2021/04/04 05:35:14;;;;;;;16.00;3.50;;;6.90;69.90;;;;;;5076581;28;20028;-75
2021/04/04 05:37:42;;;;;;;12.70;3.33;;;6.90;69.90;;;;;;5094629;28;20419;-75
2021/04/04 05:40:15;;;;;;;12.93;3.45;;;6.90;70.00;;;;;;5094638;28;20021;-75
2021/04/04 05:42:49;;;;;;;13.98;3.40;;;7.00;70.00;;;;;;5076549;28;20420;-75
2021/04/04 05:45:22;;;;;;;12.93;3.50;;;7.00;69.90;;;;;;5094557;28;20392;-75
2021/04/04 05:47:57;;;;;;;14.02;3.50;;;7.00;69.90;;;;;;5076532;28;20040;-75
2021/04/04 05:50:42;;;;;;;11.40;2.65;;;7.00;69.90;;;;;;5094932;28;20024;-75
2021/04/04 05:53:30;;;;;;;13.13;3.42;;;7.10;69.80;;;;;;5094560;28;20035;-75
2021/04/04 05:56:21;;;;;;;11.70;2.85;;;7.10;69.60;;;;;;5076170;28;20040;-75
2021/04/04 05:58:59;;;;;;;16.10;3.58;;;7.10;69.50;;;;;;5094573;28;20476;-75
2021/04/04 06:01:24;;;;;;;16.42;4.45;;;7.10;69.30;;;;;;5094382;28;20099;-75
2021/04/04 06:04:09;;;;;;;14.38;3.53;;;7.10;69.40;;;;;;5093879;28;20099;-75
2021/04/04 06:06:46;;;;;;;13.48;3.40;;;7.00;69.60;;;;;;5094200;28;20020;-75
2021/04/04 06:09:50;;;;;;;20.67;4.10;;;7.00;69.60;;;;;;5093933;28;20032;-75
2021/04/04 06:12:30;;;;;;;21.10;4.03;;;7.10;69.10;;;;;;5079360;28;20055;-75
2021/04/04 06:15:02;;;;;;;18.30;3.55;;;7.00;69.20;;;;;;5093876;28;20057;-75
2021/04/04 06:17:43;;;;;;;13.25;3.10;;;7.10;69.10;;;;;;5093486;28;20488;-75
2021/04/04 06:20:43;;;;;;;16.45;3.22;;;7.00;69.00;;;;;;5093469;28;20081;-75
2021/04/04 06:23:09;;;;;;;14.38;3.38;;;7.00;69.10;;;;;;5073641;28;20107;-75
2021/04/04 06:25:49;;;;;;;16.20;3.53;;;7.00;69.10;;;;;;5073795;28;20553;-75
2021/04/04 06:28:22;;;;;;;13.98;3.88;;;7.10;69.10;;;;;;5073448;28;20032;-75
2021/04/04 06:31:17;;;;;;;16.08;3.53;;;7.10;68.90;;;;;;5108441;28;20062;-75
2021/04/04 06:33:48;;;;;;;15.65;3.72;;;7.20;69.10;;;;;;5082020;28;20019;-75
2021/04/04 06:36:29;;;;;;;13.73;2.97;;;7.20;68.90;;;;;;5075376;28;20027;-75
2021/04/04 06:38:57;;;;;;;11.13;3.20;;;7.20;68.70;;;;;;5093154;28;20546;-75
2021/04/04 06:41:41;;;;;;;18.98;3.72;;;7.30;68.60;;;;;;5075469;28;20024;-75
2021/04/04 06:44:38;;;;;;;10.73;3.00;;;7.30;68.70;;;;;;5093640;28;20081;-75
2021/04/04 06:47:33;;;;;;;13.02;3.47;;;7.30;68.70;;;;;;5085284;28;20040;-75
2021/04/04 06:50:08;;;;;;;12.65;3.55;;;7.20;68.70;;;;;;5029793;28;20040;-75
2021/04/04 06:52:51;;;;;;;10.77;2.88;;;7.30;69.30;;;;;;5093103;28;20028;-75
2021/04/04 06:55:26;;;;;;;21.90;4.25;;;7.30;68.50;;;;;;5074617;28;20058;-75
2021/04/04 06:58:14;;;;;;;13.70;3.17;;;7.30;68.40;;;;;;5092983;28;20024;-75
2021/04/04 07:01:05;;;;;;;15.68;3.33;;;7.30;68.40;;;;;;5093156;28;20025;-75
2021/04/04 07:03:48;;;;;;;15.10;3.17;;;7.30;68.20;;;;;;5079334;28;20065;-75
2021/04/04 07:06:26;;;;;;;16.90;3.97;;;7.30;68.30;;;;;;5093141;28;20016;-75
2021/04/04 07:09:11;;;;;;;15.35;3.95;;;7.20;68.20;;;;;;5073157;28;20393;-75
2021/04/04 07:11:45;;;;;;;16.48;3.80;;;7.20;68.30;;;;;;5073093;28;20029;-75
2021/04/04 07:14:29;;;;;;;17.15;3.83;;;7.20;68.30;;;;;;5073063;28;20111;-75
2021/04/04 07:17:13;;;;;;;12.43;3.08;;;7.30;68.60;;;;;;5073041;28;20037;-75
2021/04/04 07:20:16;;;;;;;15.18;3.08;;;7.40;68.50;;;;;;5088750;28;20440;-75
2021/04/04 07:23:03;;;;;;;15.82;3.40;;;7.50;68.40;;;;;;5072800;28;20067;-76
2021/04/04 07:25:34;;;;;;;10.82;3.13;;;7.50;68.00;;;;;;5072625;28;20027;-75
2021/04/04 07:28:21;;;;;;;16.27;3.22;;;7.50;67.90;;;;;;5088432;28;20472;-75
2021/04/04 07:31:10;;;;;;;17.83;3.58;;;7.50;68.10;;;;;;5107477;28;20024;-75
2021/04/04 07:33:54;;;;;;;19.35;3.33;;;7.50;68.10;;;;;;5108585;28;20225;-75
2021/04/04 07:36:37;;;;;;;20.40;3.80;;;7.50;68.20;;;;;;5092735;28;20028;-75
2021/04/04 07:39:11;;;;;;;16.95;3.58;;;7.50;68.00;;;;;;5104608;28;20349;-76
2021/04/04 07:42:09;;;;;;;11.07;3.00;;;7.50;68.10;;;;;;5091979;28;20362;-75
2021/04/04 07:44:42;;;;;;;16.50;3.45;;;7.60;67.80;;;;;;5092811;28;20417;-76
2021/04/04 07:47:27;;;;;;;14.75;3.40;;;7.60;67.60;;;;;;5074504;28;20112;-75
2021/04/04 07:50:40;;;;;;;13.18;3.47;;;7.60;67.30;;;;;;5092924;28;20016;-76
2021/04/04 07:53:17;;;;;;;16.17;2.88;;;7.70;67.50;;;;;;4975266;28;20515;-76
2021/04/04 07:55:59;;;;;;;15.32;3.63;;;7.70;68.30;;;;;;5063251;28;20571;-76
2021/04/04 07:58:36;;;;;;;14.10;4.25;;;7.70;67.70;;;;;;5077997;28;20022;-75
2021/04/04 08:01:08;;;;;;;21.67;5.07;;;7.80;67.70;;;;;;5096331;28;20073;-75
2021/04/04 08:03:45;;;;;;;14.95;3.90;;;7.80;67.50;;;;;;5096322;28;20066;-75
2021/04/04 08:06:14;;;;;;;20.13;4.55;;;7.80;67.60;;;;;;5077943;28;20038;-75
2021/04/04 08:09:03;;;;;;;15.93;4.15;;;7.70;68.00;;;;;;5095965;28;20365;-75
2021/04/04 08:11:44;;;;;;;21.52;4.45;;;7.70;67.80;;;;;;5096119;28;20032;-75
2021/04/04 08:14:20;;;;;;;18.63;4.13;;;7.60;67.60;;;;;;5082516;28;20038;-75
2021/04/04 08:16:51;;;;;;;20.27;4.68;;;7.60;68.20;;;;;;5096292;28;20111;-75
2021/04/04 08:19:17;;;;;;;12.45;3.63;;;7.60;68.30;;;;;;5096361;28;20381;-75
2021/04/04 08:21:48;;;;;;;10.80;3.03;;;7.60;68.00;;;;;;5096042;28;20020;-75
2021/04/04 08:24:27;;;;;;;16.27;3.40;;;7.80;67.90;;;;;;5096181;28;20029;-75
2021/04/04 08:27:14;;;;;;;10.05;2.63;;;7.80;67.70;;;;;;5095916;28;20477;-75
2021/04/04 08:29:45;;;;;;;20.95;3.53;;;7.80;67.80;;;;;;5077653;28;20039;-75
2021/04/04 08:32:15;;;;;;;14.68;3.55;;;7.90;67.70;;;;;;5096025;28;20024;-75
2021/04/04 08:34:48;;;;;;;14.85;3.42;;;7.90;67.60;;;;;;5095659;28;20032;-75
2021/04/04 08:37:32;;;;;;;11.10;3.10;;;8.00;67.30;;;;;;5095933;28;20062;-75
2021/04/04 08:40:01;;;;;;;15.02;3.10;;;8.00;66.80;;;;;;5095855;28;20047;-75
2021/04/04 08:42:29;;;;;;;12.32;2.83;;;8.00;66.70;;;;;;5095958;28;20384;-75
2021/04/04 08:45:16;;;;;;;12.37;2.60;;;8.00;66.70;;;;;;5095724;28;20065;-75
2021/04/04 08:47:45;;;;;;;12.57;3.35;;;8.00;66.80;;;;;;5072939;28;20040;-76
2021/04/04 08:50:19;;;;;;;10.65;2.72;;;8.00;66.70;;;;;;5074211;28;20389;-76
2021/04/04 08:52:50;;;;;;;15.00;3.50;;;8.00;66.90;;;;;;5075315;28;20028;-76
2021/04/04 08:55:26;;;;;;;11.23;2.92;;;7.90;67.10;;;;;;5075305;28;20477;-76
2021/04/04 08:57:53;;;;;;;8.40;2.85;;;7.90;67.40;;;;;;5075249;28;20055;-76
2021/04/04 09:00:21;;;;;;;16.98;3.20;;;7.90;67.30;;;;;;5075104;28;20024;-76
2021/04/04 09:02:46;;;;;;;12.93;2.97;;;8.00;67.40;;;;;;5073897;28;20047;-77
2021/04/04 09:05:13;;;;;;;10.73;3.15;;;8.00;67.20;;;;;;5074284;28;20067;-77
2021/04/04 09:07:43;;;;;;;7.03;2.60;;;8.10;67.00;;;;;;5074867;28;20033;-78
2021/04/04 09:10:12;;;;;;;10.85;3.53;;;8.20;66.80;;;;;;5074464;28;20162;-78
2021/04/04 09:12:40;;;;;;;15.25;3.25;;;8.20;66.60;;;;;;5074806;28;20082;-78
2021/04/04 09:15:08;;;;;;;12.80;3.15;;;8.30;66.50;;;;;;5074835;28;20560;-78
2021/04/04 09:17:34;;;;;;;20.65;3.17;;;8.20;66.50;;;;;;5040649;28;20029;-78
2021/04/04 09:20:03;;;;;;;20.17;3.70;;;8.20;66.70;;;;;;5074847;28;20579;-78
2021/04/04 09:22:29;;;;;;;21.52;4.25;;;8.20;66.80;;;;;;5073718;28;20482;-78
2021/04/04 09:24:59;;;;;;;20.88;3.92;;;8.20;66.80;;;;;;5076443;28;20036;-78
2021/04/04 09:27:34;;;;;;;13.18;3.60;;;8.10;67.00;;;;;;5068762;28;20058;-77
2021/04/04 09:30:01;;;;;;;18.98;3.55;;;8.10;67.30;;;;;;5074261;28;20035;-78
2021/04/04 09:32:46;;;;;;;11.80;3.42;;;8.10;67.50;;;;;;5079586;28;20373;-78
2021/04/04 09:35:14;;;;;;;15.27;3.97;;;8.00;67.60;;;;;;5074318;28;20033;-78
2021/04/04 09:37:42;;;;;;;16.92;4.65;;;8.10;67.90;;;;;;5073277;28;20031;-79
2021/04/04 09:40:08;;;;;;;27.48;3.65;;;8.30;68.40;;;;;;5075120;28;20123;-79
2021/04/04 09:42:35;;;;;;;41.78;4.82;;;8.50;67.80;;;;;;5071619;28;20041;-80
2021/04/04 09:45:20;;;;;;;18.23;3.97;;;8.70;67.60;;;;;;5068634;28;20412;-79
2021/04/04 09:47:46;;;;;;;13.63;3.45;;;9.00;67.80;;;;;;5057141;28;20040;-80
2021/04/04 09:50:30;;;;;;;19.70;3.65;;;9.20;67.40;;;;;;5073966;28;20096;-80
2021/04/04 09:52:57;;;;;;;16.48;3.60;;;9.50;66.80;;;;;;5053987;28;20037;-81
2021/04/04 09:55:25;;;;;;;11.68;3.25;;;9.60;66.10;;;;;;5086529;28;20032;-82
2021/04/04 09:57:54;;;;;;;17.52;3.75;;;9.80;65.20;;;;;;5071032;28;20032;-81
2021/04/04 10:00:39;;;;;;;21.17;3.80;;;9.90;64.50;;;;;;5072394;28;20024;-81
2021/04/04 10:03:11;;;;;;;20.33;4.20;;;10.00;64.00;;;;;;5062329;28;20025;-80
2021/04/04 10:05:40;;;;;;;52.38;5.65;;;10.10;63.70;;;;;;5069471;28;20781;-79
2021/04/04 10:08:07;;;;;;;19.25;4.60;;;10.20;63.60;;;;;;5069862;28;20436;-79
2021/04/04 10:10:33;;;;;;;15.70;4.22;;;10.20;63.00;;;;;;5072319;28;20033;-81
2021/04/04 10:13:00;;;;;;;16.85;3.70;;;10.20;62.90;;;;;;5069426;28;20097;-79
2021/04/04 10:15:26;;;;;;;14.85;3.03;;;10.30;62.90;;;;;;5090201;28;20093;-79
2021/04/04 10:17:53;;;;;;;16.27;3.10;;;10.30;62.80;;;;;;5072759;28;20381;-75
2021/04/04 10:20:30;;;;;;;10.25;2.90;;;10.40;60.90;;;;;;5071856;28;20081;-76
2021/04/04 10:22:55;;;;;;;13.02;2.80;;;10.20;61.00;;;;;;5090417;28;20489;-76
2021/04/04 10:25:21;;;;;;;15.48;2.78;;;10.00;61.10;;;;;;5071143;28;20062;-75
2021/04/04 10:28:06;;;;;;;21.10;3.63;;;9.70;60.60;;;;;;5070122;28;20041;-76
2021/04/04 10:30:34;;;;;;;14.60;3.10;;;9.50;61.30;;;;;;5084706;28;21530;-76
2021/04/04 10:33:28;;;;;;;11.07;2.80;;;9.30;61.70;;;;;;5071273;28;20492;-76
2021/04/04 10:35:54;;;;;;;12.43;2.83;;;9.10;62.10;;;;;;5070618;28;20028;-76
2021/04/04 10:38:22;;;;;;;11.82;3.20;;;9.10;62.60;;;;;;5078502;28;20024;-76
2021/04/04 10:40:48;;;;;;;13.98;2.92;;;9.10;63.80;;;;;;5075912;28;20020;-75
2021/04/04 10:43:15;;;;;;;15.10;3.00;;;9.00;64.10;;;;;;5069896;28;20025;-76
2021/04/04 10:46:08;;;;;;;17.45;3.35;;;9.10;63.70;;;;;;5071561;28;20087;-75
2021/04/04 10:48:36;;;;;;;20.15;3.40;;;9.10;63.90;;;;;;5086143;28;20055;-75
2021/04/04 10:51:03;;;;;;;15.98;3.08;;;9.10;63.10;;;;;;5083382;28;20042;-73
2021/04/04 10:53:29;;;;;;;23.00;3.67;;;9.10;63.10;;;;;;5067422;28;20044;-74
2021/04/04 10:55:55;;;;;;;13.75;2.70;;;9.10;62.50;;;;;;5091218;28;20035;-74
2021/04/04 10:58:25;;;;;;;14.88;2.90;;;9.00;62.80;;;;;;5072884;28;20027;-74
2021/04/04 11:00:51;;;;;;;13.25;2.90;;;9.00;63.00;;;;;;5075791;28;20020;-74
2021/04/04 11:03:19;;;;;;;6.65;2.10;;;9.10;62.50;;;;;;5074920;28;20093;-73
2021/04/04 11:05:45;;;;;;;7.70;2.17;;;9.20;62.80;;;;;;5074792;28;20139;-73
2021/04/04 11:08:11;;;;;;;11.13;2.25;;;9.30;62.30;;;;;;5092673;28;20031;-74
2021/04/04 11:10:36;;;;;;;13.13;2.25;;;9.40;62.10;;;;;;5098438;28;20559;-74
2021/04/04 11:13:03;;;;;;;11.25;2.97;;;9.50;62.20;;;;;;5090294;28;20050;-74
2021/04/04 11:15:34;;;;;;;13.68;2.90;;;9.60;61.80;;;;;;5072588;28;20024;-74
2021/04/04 11:18:08;;;;;;;13.68;2.92;;;9.60;62.00;;;;;;5081410;28;20028;-74
2021/04/04 11:20:35;;;;;;;10.82;2.50;;;9.70;61.70;;;;;;5092376;28;20028;-74
2021/04/04 11:23:01;;;;;;;11.88;2.78;;;9.60;61.80;;;;;;5106999;28;20016;-74
2021/04/04 11:25:31;;;;;;;9.32;2.08;;;9.60;61.30;;;;;;5092184;28;20090;-74
2021/04/04 11:27:57;;;;;;;13.73;2.40;;;9.60;61.60;;;;;;5094411;28;20032;-73
2021/04/04 11:30:31;;;;;;;11.95;3.47;;;9.60;60.80;;;;;;5095434;28;20032;-73
2021/04/04 11:33:16;;;;;;;10.20;2.70;;;9.60;61.10;;;;;;5095565;28;20043;-74
2021/04/04 11:36:01;;;;;;;10.55;2.50;;;9.60;60.90;;;;;;5093528;28;20118;-74
2021/04/04 11:38:28;;;;;;;13.40;2.88;;;9.70;60.70;;;;;;5095711;28;20020;-74
2021/04/04 11:41:13;;;;;;;5.65;2.20;;;9.70;59.90;;;;;;5075715;28;20540;-73
2021/04/04 11:43:39;;;;;;;9.63;2.83;;;9.80;59.90;;;;;;5092338;28;20063;-73
2021/04/04 11:46:25;;;;;;;9.27;2.50;;;9.80;60.30;;;;;;5082109;28;20032;-74
2021/04/04 11:48:51;;;;;;;18.92;3.40;;;9.90;60.40;;;;;;5095209;28;20047;-74
2021/04/04 11:51:16;;;;;;;10.70;2.97;;;9.90;59.60;;;;;;5077000;28;20474;-74
2021/04/04 11:53:42;;;;;;;18.83;3.50;;;9.90;59.40;;;;;;5090040;28;20071;-74
2021/04/04 11:56:09;;;;;;;12.95;3.00;;;9.90;59.80;;;;;;5093928;28;20109;-74
2021/04/04 11:58:35;;;;;;;23.90;4.05;;;9.90;60.60;;;;;;5062435;28;20028;-74
2021/04/04 12:01:01;;;;;;;19.98;3.80;;;9.90;60.30;;;;;;5098005;28;20087;-73
2021/04/04 12:03:27;;;;;;;8.55;2.97;;;10.00;59.80;;;;;;5093665;28;20051;-75
2021/04/04 12:05:53;;;;;;;15.57;3.63;;;10.00;60.00;;;;;;5093530;28;20077;-74
2021/04/04 12:08:29;;;;;;;13.50;3.25;;;10.10;58.90;;;;;;5073713;28;20436;-74
2021/04/04 12:10:55;;;;;;;20.45;4.03;;;10.20;59.10;;;;;;5073252;28;20481;-74
2021/04/04 12:13:21;;;;;;;10.35;3.28;;;10.20;58.90;;;;;;5086081;28;20032;-74
2021/04/04 12:15:46;;;;;;;15.80;4.07;;;10.30;59.30;;;;;;5058239;28;20063;-74
2021/04/04 12:18:12;;;;;;;11.57;3.60;;;10.30;58.40;;;;;;5088688;28;20028;-73
2021/04/04 12:20:39;;;;;;;12.40;3.28;;;10.30;58.80;;;;;;5090532;28;21708;-74
2021/04/04 12:23:13;;;;;;;14.60;3.63;;;10.30;58.60;;;;;;5074007;28;20519;-74
2021/04/04 12:25:39;;;;;;;17.90;4.43;;;10.50;59.20;;;;;;5083046;28;20059;-74
2021/04/04 12:28:05;;;;;;;16.95;3.70;;;10.60;58.10;;;;;;5089144;28;20080;-74
2021/04/04 12:30:36;;;;;;;17.75;3.90;;;10.70;58.00;;;;;;5089653;28;20024;-73
2021/04/04 12:33:10;;;;;;;7.97;3.05;;;10.80;58.20;;;;;;5083598;28;20036;-74
2021/04/04 12:35:44;;;;;;;15.60;3.90;;;10.90;58.20;;;;;;5100848;28;20028;-74
2021/04/04 12:38:20;;;;;;;12.80;3.70;;;11.00;57.60;;;;;;5086235;28;20028;-74
2021/04/04 12:40:46;;;;;;;18.63;4.30;;;11.00;57.90;;;;;;5091062;28;20387;-74
2021/04/04 12:43:12;;;;;;;12.77;3.50;;;10.90;57.20;;;;;;5084050;28;20104;-74
2021/04/04 12:45:38;;;;;;;10.63;3.58;;;11.00;57.60;;;;;;5090218;28;20140;-74
2021/04/04 12:48:24;;;;;;;12.50;3.65;;;11.20;57.00;;;;;;5074291;28;20102;-74
2021/04/04 12:50:58;;;;;;;8.60;3.95;;;11.30;57.10;;;;;;5067454;28;20029;-75
2021/04/04 12:53:26;;;;;;;8.05;3.60;;;11.30;56.80;;;;;;5066010;28;20060;-71
2021/04/04 12:55:52;;;;;;;9.02;3.72;;;11.30;57.10;;;;;;5073035;28;20060;-72
2021/04/04 12:58:18;;;;;;;13.93;4.55;;;11.40;57.30;;;;;;5063729;28;20107;-72
2021/04/04 13:00:46;;;;;;;15.23;4.68;;;11.60;55.90;;;;;;5063040;28;20667;-72
2021/04/04 13:03:12;;;;;;;14.00;5.47;;;11.70;55.70;;;;;;5063040;28;20052;-72
2021/04/04 13:05:41;;;;;;;16.25;4.93;;;11.70;56.20;;;;;;5068629;28;20028;-72
2021/04/04 13:08:21;;;;;;;16.95;5.18;;;11.80;55.50;;;;;;5066333;28;20037;-73